sensor_id;sensor_type;location;lat;lon;timestamp;P1;durP1;ratioP1;P2;durP2;ratioP2
31730;SDS011;18310;55.586;12.286;2023-08-30T00:02:30;3.65;;;1.45;;
31730;SDS011;18310;55.586;12.286;2023-08-30T00:05:34;2.17;;;1.25;;
31730;SDS011;18310;55.586;12.286;2023-08-30T00:08:42;3.67;;;1.95;;
31730;SDS011;18310;55.586;12.286;2023-08-30T00:11:45;3.83;;;1.70;;
31730;SDS011;18310;55.586;12.286;2023-08-30T00:14:49;3.90;;;1.58;;
31730;SDS011;18310;55.586;12.286;2023-08-30T00:17:52;3.67;;;1.60;;
31730;SDS011;18310;55.586;12.286;2023-08-30T00:20:55;5.15;;;1.40;;
31730;SDS011;18310;55.586;12.286;2023-08-30T00:23:59;2.95;;;1.73;;
31730;SDS011;18310;55.586;12.286;2023-08-30T00:27:02;3.47;;;1.15;;
31730;SDS011;18310;55.586;12.286;2023-08-30T00:30:08;3.47;;;1.40;;
31730;SDS011;18310;55.586;12.286;2023-08-30T00:33:12;2.25;;;1.20;;
31730;SDS011;18310;55.586;12.286;2023-08-30T00:36:15;5.30;;;1.50;;
31730;SDS011;18310;55.586;12.286;2023-08-30T00:42:22;3.67;;;1.60;;
31730;SDS011;18310;55.586;12.286;2023-08-30T00:45:59;2.42;;;1.40;;
31730;SDS011;18310;55.586;12.286;2023-08-30T00:49:02;3.90;;;1.27;;
31730;SDS011;18310;55.586;12.286;2023-08-30T00:52:07;4.00;;;1.80;;
31730;SDS011;18310;55.586;12.286;2023-08-30T00:55:12;2.80;;;1.30;;
31730;SDS011;18310;55.586;12.286;2023-08-30T00:58:16;2.60;;;1.30;;
31730;SDS011;18310;55.586;12.286;2023-08-30T01:01:21;4.13;;;1.67;;
31730;SDS011;18310;55.586;12.286;2023-08-30T01:04:24;3.40;;;1.40;;
31730;SDS011;18310;55.586;12.286;2023-08-30T01:07:27;4.00;;;1.67;;
31730;SDS011;18310;55.586;12.286;2023-08-30T01:13:56;4.22;;;1.42;;
31730;SDS011;18310;55.586;12.286;2023-08-30T01:17:04;4.18;;;1.58;;
31730;SDS011;18310;55.586;12.286;2023-08-30T01:20:08;5.50;;;1.80;;
31730;SDS011;18310;55.586;12.286;2023-08-30T01:23:18;6.53;;;1.80;;
31730;SDS011;18310;55.586;12.286;2023-08-30T01:26:44;3.08;;;1.55;;
31730;SDS011;18310;55.586;12.286;2023-08-30T01:29:58;3.72;;;1.50;;
31730;SDS011;18310;55.586;12.286;2023-08-30T01:33:02;6.78;;;1.40;;
31730;SDS011;18310;55.586;12.286;2023-08-30T01:36:07;3.03;;;1.48;;
31730;SDS011;18310;55.586;12.286;2023-08-30T01:39:10;3.58;;;1.50;;
31730;SDS011;18310;55.586;12.286;2023-08-30T01:42:15;2.58;;;1.30;;
31730;SDS011;18310;55.586;12.286;2023-08-30T01:45:25;5.15;;;1.60;;
31730;SDS011;18310;55.586;12.286;2023-08-30T01:48:29;3.00;;;1.50;;
31730;SDS011;18310;55.586;12.286;2023-08-30T01:51:35;3.50;;;1.52;;
31730;SDS011;18310;55.586;12.286;2023-08-30T01:54:39;4.00;;;1.63;;
31730;SDS011;18310;55.586;12.286;2023-08-30T01:57:43;4.43;;;1.77;;
31730;SDS011;18310;55.586;12.286;2023-08-30T02:00:48;4.10;;;1.60;;
31730;SDS011;18310;55.586;12.286;2023-08-30T02:03:51;5.43;;;1.65;;
31730;SDS011;18310;55.586;12.286;2023-08-30T02:06:56;2.40;;;1.30;;
31730;SDS011;18310;55.586;12.286;2023-08-30T02:10:05;3.10;;;1.25;;
31730;SDS011;18310;55.586;12.286;2023-08-30T02:13:10;5.45;;;1.80;;
31730;SDS011;18310;55.586;12.286;2023-08-30T02:16:16;4.07;;;1.60;;
31730;SDS011;18310;55.586;12.286;2023-08-30T02:19:21;3.25;;;1.67;;
31730;SDS011;18310;55.586;12.286;2023-08-30T02:22:24;3.27;;;1.33;;
31730;SDS011;18310;55.586;12.286;2023-08-30T02:25:28;4.55;;;1.67;;
31730;SDS011;18310;55.586;12.286;2023-08-30T02:28:31;5.05;;;1.42;;
31730;SDS011;18310;55.586;12.286;2023-08-30T02:31:35;3.00;;;1.40;;
31730;SDS011;18310;55.586;12.286;2023-08-30T02:34:39;3.42;;;1.70;;
31730;SDS011;18310;55.586;12.286;2023-08-30T02:37:42;2.30;;;1.27;;
31730;SDS011;18310;55.586;12.286;2023-08-30T02:40:45;4.00;;;1.67;;
31730;SDS011;18310;55.586;12.286;2023-08-30T02:43:48;3.17;;;1.27;;
31730;SDS011;18310;55.586;12.286;2023-08-30T02:46:52;2.50;;;1.33;;
31730;SDS011;18310;55.586;12.286;2023-08-30T02:49:55;4.07;;;1.45;;
31730;SDS011;18310;55.586;12.286;2023-08-30T02:52:58;3.53;;;1.50;;
31730;SDS011;18310;55.586;12.286;2023-08-30T02:56:02;4.35;;;1.77;;
31730;SDS011;18310;55.586;12.286;2023-08-30T02:59:05;2.90;;;1.50;;
31730;SDS011;18310;55.586;12.286;2023-08-30T03:02:09;2.78;;;1.50;;
31730;SDS011;18310;55.586;12.286;2023-08-30T03:08:15;4.78;;;1.52;;
31730;SDS011;18310;55.586;12.286;2023-08-30T03:11:18;4.22;;;1.60;;
31730;SDS011;18310;55.586;12.286;2023-08-30T03:14:21;3.42;;;1.48;;
31730;SDS011;18310;55.586;12.286;2023-08-30T03:17:26;4.05;;;2.13;;
31730;SDS011;18310;55.586;12.286;2023-08-30T03:20:31;3.88;;;1.60;;
31730;SDS011;18310;55.586;12.286;2023-08-30T03:23:35;2.83;;;1.60;;
31730;SDS011;18310;55.586;12.286;2023-08-30T03:26:38;2.78;;;1.40;;
31730;SDS011;18310;55.586;12.286;2023-08-30T03:29:42;3.67;;;1.40;;
31730;SDS011;18310;55.586;12.286;2023-08-30T03:32:47;4.17;;;1.77;;
31730;SDS011;18310;55.586;12.286;2023-08-30T03:35:50;3.65;;;2.03;;
31730;SDS011;18310;55.586;12.286;2023-08-30T03:38:53;4.18;;;1.80;;
31730;SDS011;18310;55.586;12.286;2023-08-30T03:41:56;3.42;;;1.50;;
31730;SDS011;18310;55.586;12.286;2023-08-30T03:44:59;2.50;;;1.30;;
31730;SDS011;18310;55.586;12.286;2023-08-30T03:48:03;4.72;;;1.15;;
31730;SDS011;18310;55.586;12.286;2023-08-30T03:51:08;5.78;;;1.60;;
31730;SDS011;18310;55.586;12.286;2023-08-30T03:54:11;2.85;;;1.23;;
31730;SDS011;18310;55.586;12.286;2023-08-30T03:57:17;4.15;;;1.20;;
31730;SDS011;18310;55.586;12.286;2023-08-30T04:00:20;5.22;;;1.40;;
31730;SDS011;18310;55.586;12.286;2023-08-30T04:03:25;2.63;;;1.50;;
31730;SDS011;18310;55.586;12.286;2023-08-30T04:06:29;2.58;;;1.10;;
31730;SDS011;18310;55.586;12.286;2023-08-30T04:09:32;2.25;;;1.23;;
31730;SDS011;18310;55.586;12.286;2023-08-30T04:12:35;1.95;;;0.98;;
31730;SDS011;18310;55.586;12.286;2023-08-30T04:15:38;3.63;;;1.33;;
31730;SDS011;18310;55.586;12.286;2023-08-30T04:18:43;4.03;;;1.00;;
31730;SDS011;18310;55.586;12.286;2023-08-30T04:21:46;2.88;;;1.20;;
31730;SDS011;18310;55.586;12.286;2023-08-30T04:24:49;3.88;;;1.73;;
31730;SDS011;18310;55.586;12.286;2023-08-30T04:27:52;2.72;;;1.35;;
31730;SDS011;18310;55.586;12.286;2023-08-30T04:30:55;4.20;;;1.52;;
31730;SDS011;18310;55.586;12.286;2023-08-30T04:34:00;1.88;;;1.00;;
31730;SDS011;18310;55.586;12.286;2023-08-30T04:37:03;3.13;;;1.48;;
31730;SDS011;18310;55.586;12.286;2023-08-30T04:40:06;3.40;;;1.80;;
31730;SDS011;18310;55.586;12.286;2023-08-30T04:46:13;7.53;;;1.58;;
31730;SDS011;18310;55.586;12.286;2023-08-30T04:49:18;3.33;;;1.83;;
31730;SDS011;18310;55.586;12.286;2023-08-30T04:52:21;8.13;;;2.38;;
31730;SDS011;18310;55.586;12.286;2023-08-30T04:55:24;3.42;;;1.52;;
31730;SDS011;18310;55.586;12.286;2023-08-30T04:58:27;7.37;;;1.93;;
31730;SDS011;18310;55.586;12.286;2023-08-30T05:01:31;5.47;;;3.08;;
31730;SDS011;18310;55.586;12.286;2023-08-30T05:04:35;4.53;;;2.60;;
31730;SDS011;18310;55.586;12.286;2023-08-30T05:07:38;3.75;;;2.22;;
31730;SDS011;18310;55.586;12.286;2023-08-30T05:10:41;3.00;;;1.70;;
31730;SDS011;18310;55.586;12.286;2023-08-30T05:13:45;4.95;;;2.28;;
31730;SDS011;18310;55.586;12.286;2023-08-30T05:16:48;6.28;;;1.90;;
31730;SDS011;18310;55.586;12.286;2023-08-30T05:19:55;4.57;;;1.67;;
31730;SDS011;18310;55.586;12.286;2023-08-30T05:22:58;4.72;;;2.08;;
31730;SDS011;18310;55.586;12.286;2023-08-30T05:26:01;2.65;;;1.70;;
31730;SDS011;18310;55.586;12.286;2023-08-30T05:31:26;6.55;;;1.77;;
31730;SDS011;18310;55.586;12.286;2023-08-30T05:34:29;3.90;;;2.10;;
31730;SDS011;18310;55.586;12.286;2023-08-30T05:37:32;2.40;;;1.35;;
31730;SDS011;18310;55.586;12.286;2023-08-30T05:40:35;6.37;;;1.77;;
31730;SDS011;18310;55.586;12.286;2023-08-30T05:43:38;5.50;;;1.60;;
31730;SDS011;18310;55.586;12.286;2023-08-30T05:46:42;4.18;;;1.90;;
31730;SDS011;18310;55.586;12.286;2023-08-30T05:49:45;3.20;;;1.83;;
31730;SDS011;18310;55.586;12.286;2023-08-30T05:52:48;5.63;;;1.83;;
31730;SDS011;18310;55.586;12.286;2023-08-30T05:55:53;3.65;;;1.63;;
31730;SDS011;18310;55.586;12.286;2023-08-30T05:58:56;2.17;;;1.35;;
31730;SDS011;18310;55.586;12.286;2023-08-30T06:02:00;3.58;;;1.52;;
31730;SDS011;18310;55.586;12.286;2023-08-30T06:05:03;4.40;;;1.70;;
31730;SDS011;18310;55.586;12.286;2023-08-30T06:08:06;3.53;;;1.27;;
31730;SDS011;18310;55.586;12.286;2023-08-30T06:11:11;2.53;;;1.20;;
31730;SDS011;18310;55.586;12.286;2023-08-30T06:14:14;3.10;;;1.30;;
31730;SDS011;18310;55.586;12.286;2023-08-30T06:17:21;2.75;;;1.38;;
31730;SDS011;18310;55.586;12.286;2023-08-30T06:20:24;3.05;;;1.20;;
31730;SDS011;18310;55.586;12.286;2023-08-30T06:23:27;2.72;;;0.98;;
31730;SDS011;18310;55.586;12.286;2023-08-30T06:26:30;2.37;;;1.03;;
31730;SDS011;18310;55.586;12.286;2023-08-30T06:32:38;2.00;;;0.98;;
31730;SDS011;18310;55.586;12.286;2023-08-30T06:35:41;1.52;;;0.70;;
31730;SDS011;18310;55.586;12.286;2023-08-30T06:38:45;2.20;;;1.00;;
31730;SDS011;18310;55.586;12.286;2023-08-30T06:41:48;2.20;;;1.10;;
31730;SDS011;18310;55.586;12.286;2023-08-30T06:44:51;3.30;;;1.20;;
31730;SDS011;18310;55.586;12.286;2023-08-30T06:47:55;1.27;;;0.80;;
31730;SDS011;18310;55.586;12.286;2023-08-30T06:50:58;2.72;;;0.95;;
31730;SDS011;18310;55.586;12.286;2023-08-30T06:54:01;2.42;;;1.00;;
31730;SDS011;18310;55.586;12.286;2023-08-30T06:57:04;1.97;;;0.70;;
31730;SDS011;18310;55.586;12.286;2023-08-30T07:03:13;2.45;;;0.90;;
31730;SDS011;18310;55.586;12.286;2023-08-30T07:06:16;4.68;;;1.00;;
31730;SDS011;18310;55.586;12.286;2023-08-30T07:09:19;3.70;;;0.70;;
31730;SDS011;18310;55.586;12.286;2023-08-30T07:12:25;1.80;;;0.50;;
31730;SDS011;18310;55.586;12.286;2023-08-30T07:15:28;3.25;;;0.57;;
31730;SDS011;18310;55.586;12.286;2023-08-30T07:18:32;1.33;;;0.43;;
31730;SDS011;18310;55.586;12.286;2023-08-30T07:21:35;1.90;;;0.50;;
31730;SDS011;18310;55.586;12.286;2023-08-30T07:24:40;3.13;;;0.60;;
31730;SDS011;18310;55.586;12.286;2023-08-30T07:27:43;2.10;;;0.63;;
31730;SDS011;18310;55.586;12.286;2023-08-30T07:30:46;1.50;;;0.40;;
31730;SDS011;18310;55.586;12.286;2023-08-30T07:33:51;1.83;;;0.60;;
31730;SDS011;18310;55.586;12.286;2023-08-30T07:36:54;1.63;;;0.60;;
31730;SDS011;18310;55.586;12.286;2023-08-30T07:39:58;1.65;;;0.60;;
31730;SDS011;18310;55.586;12.286;2023-08-30T07:43:01;1.35;;;0.50;;
31730;SDS011;18310;55.586;12.286;2023-08-30T07:46:04;1.90;;;0.43;;
31730;SDS011;18310;55.586;12.286;2023-08-30T07:49:08;1.10;;;0.50;;
31730;SDS011;18310;55.586;12.286;2023-08-30T07:52:11;1.73;;;0.65;;
31730;SDS011;18310;55.586;12.286;2023-08-30T07:55:14;2.10;;;0.70;;
31730;SDS011;18310;55.586;12.286;2023-08-30T07:58:17;2.47;;;0.52;;
31730;SDS011;18310;55.586;12.286;2023-08-30T08:01:24;2.47;;;0.60;;
31730;SDS011;18310;55.586;12.286;2023-08-30T08:04:29;3.37;;;0.60;;
31730;SDS011;18310;55.586;12.286;2023-08-30T08:07:32;1.08;;;0.40;;
31730;SDS011;18310;55.586;12.286;2023-08-30T08:10:35;1.63;;;0.50;;
31730;SDS011;18310;55.586;12.286;2023-08-30T08:13:57;2.50;;;0.88;;
31730;SDS011;18310;55.586;12.286;2023-08-30T08:17:00;3.17;;;0.80;;
31730;SDS011;18310;55.586;12.286;2023-08-30T08:20:04;1.95;;;0.65;;
31730;SDS011;18310;55.586;12.286;2023-08-30T08:23:08;1.15;;;0.52;;
31730;SDS011;18310;55.586;12.286;2023-08-30T08:26:11;3.28;;;0.63;;
31730;SDS011;18310;55.586;12.286;2023-08-30T08:29:16;2.43;;;0.53;;
31730;SDS011;18310;55.586;12.286;2023-08-30T08:32:19;2.42;;;0.70;;
31730;SDS011;18310;55.586;12.286;2023-08-30T08:35:22;2.63;;;0.97;;
31730;SDS011;18310;55.586;12.286;2023-08-30T08:38:25;1.85;;;0.50;;
31730;SDS011;18310;55.586;12.286;2023-08-30T08:41:29;4.65;;;0.88;;
31730;SDS011;18310;55.586;12.286;2023-08-30T08:44:39;2.55;;;0.77;;
31730;SDS011;18310;55.586;12.286;2023-08-30T08:47:44;1.83;;;0.80;;
31730;SDS011;18310;55.586;12.286;2023-08-30T08:50:49;4.07;;;0.60;;
31730;SDS011;18310;55.586;12.286;2023-08-30T08:53:52;1.23;;;0.60;;
31730;SDS011;18310;55.586;12.286;2023-08-30T08:56:59;2.03;;;0.60;;
31730;SDS011;18310;55.586;12.286;2023-08-30T09:00:04;2.35;;;0.90;;
31730;SDS011;18310;55.586;12.286;2023-08-30T09:03:09;4.93;;;0.80;;
31730;SDS011;18310;55.586;12.286;2023-08-30T09:09:03;1.77;;;0.70;;
31730;SDS011;18310;55.586;12.286;2023-08-30T09:12:07;1.83;;;0.68;;
31730;SDS011;18310;55.586;12.286;2023-08-30T09:15:10;4.33;;;0.77;;
31730;SDS011;18310;55.586;12.286;2023-08-30T09:18:16;2.08;;;0.73;;
31730;SDS011;18310;55.586;12.286;2023-08-30T09:21:19;2.53;;;0.90;;
31730;SDS011;18310;55.586;12.286;2023-08-30T09:24:23;1.00;;;0.50;;
31730;SDS011;18310;55.586;12.286;2023-08-30T09:27:31;2.78;;;0.73;;
31730;SDS011;18310;55.586;12.286;2023-08-30T09:30:35;2.58;;;0.50;;
31730;SDS011;18310;55.586;12.286;2023-08-30T09:33:38;2.60;;;0.65;;
31730;SDS011;18310;55.586;12.286;2023-08-30T09:36:41;2.00;;;0.63;;
31730;SDS011;18310;55.586;12.286;2023-08-30T09:39:49;2.53;;;0.80;;
31730;SDS011;18310;55.586;12.286;2023-08-30T09:42:52;1.85;;;0.70;;
31730;SDS011;18310;55.586;12.286;2023-08-30T09:46:14;1.50;;;0.60;;
31730;SDS011;18310;55.586;12.286;2023-08-30T09:52:23;1.45;;;0.60;;
31730;SDS011;18310;55.586;12.286;2023-08-30T09:55:28;2.80;;;0.65;;
31730;SDS011;18310;55.586;12.286;2023-08-30T09:58:31;1.40;;;0.50;;
31730;SDS011;18310;55.586;12.286;2023-08-30T10:01:34;1.65;;;0.65;;
31730;SDS011;18310;55.586;12.286;2023-08-30T10:04:38;1.38;;;0.40;;
31730;SDS011;18310;55.586;12.286;2023-08-30T10:07:43;1.38;;;0.70;;
31730;SDS011;18310;55.586;12.286;2023-08-30T10:10:48;1.30;;;0.50;;
31730;SDS011;18310;55.586;12.286;2023-08-30T10:13:53;2.63;;;0.60;;
31730;SDS011;18310;55.586;12.286;2023-08-30T10:16:58;2.20;;;0.68;;
31730;SDS011;18310;55.586;12.286;2023-08-30T10:20:05;1.88;;;0.52;;
31730;SDS011;18310;55.586;12.286;2023-08-30T10:23:09;2.55;;;0.60;;
31730;SDS011;18310;55.586;12.286;2023-08-30T10:26:14;3.85;;;0.73;;
31730;SDS011;18310;55.586;12.286;2023-08-30T10:29:19;1.45;;;0.57;;
31730;SDS011;18310;55.586;12.286;2023-08-30T10:32:22;3.03;;;0.57;;
31730;SDS011;18310;55.586;12.286;2023-08-30T10:35:26;1.70;;;0.60;;
31730;SDS011;18310;55.586;12.286;2023-08-30T10:38:29;1.67;;;0.63;;
31730;SDS011;18310;55.586;12.286;2023-08-30T10:41:33;2.78;;;0.60;;
31730;SDS011;18310;55.586;12.286;2023-08-30T10:44:46;1.05;;;0.40;;
31730;SDS011;18310;55.586;12.286;2023-08-30T10:48:10;1.63;;;0.60;;
31730;SDS011;18310;55.586;12.286;2023-08-30T10:51:19;1.20;;;0.50;;
31730;SDS011;18310;55.586;12.286;2023-08-30T10:54:24;1.83;;;0.52;;
31730;SDS011;18310;55.586;12.286;2023-08-30T10:57:28;1.20;;;0.40;;
31730;SDS011;18310;55.586;12.286;2023-08-30T11:00:31;5.95;;;0.90;;
31730;SDS011;18310;55.586;12.286;2023-08-30T11:03:35;1.58;;;0.60;;
31730;SDS011;18310;55.586;12.286;2023-08-30T11:06:38;1.20;;;0.47;;
31730;SDS011;18310;55.586;12.286;2023-08-30T11:09:41;1.08;;;0.43;;
31730;SDS011;18310;55.586;12.286;2023-08-30T11:12:46;3.60;;;0.60;;
31730;SDS011;18310;55.586;12.286;2023-08-30T11:15:51;1.75;;;0.50;;
31730;SDS011;18310;55.586;12.286;2023-08-30T11:18:54;2.92;;;0.50;;
31730;SDS011;18310;55.586;12.286;2023-08-30T11:21:57;1.38;;;0.40;;
31730;SDS011;18310;55.586;12.286;2023-08-30T11:25:00;6.07;;;0.73;;
31730;SDS011;18310;55.586;12.286;2023-08-30T11:28:05;1.50;;;0.70;;
31730;SDS011;18310;55.586;12.286;2023-08-30T11:31:08;0.80;;;0.50;;
31730;SDS011;18310;55.586;12.286;2023-08-30T11:34:11;1.00;;;0.50;;
31730;SDS011;18310;55.586;12.286;2023-08-30T11:37:14;1.13;;;0.50;;
31730;SDS011;18310;55.586;12.286;2023-08-30T11:40:17;2.15;;;0.65;;
31730;SDS011;18310;55.586;12.286;2023-08-30T11:43:22;3.50;;;0.65;;
31730;SDS011;18310;55.586;12.286;2023-08-30T11:46:25;1.13;;;0.60;;
31730;SDS011;18310;55.586;12.286;2023-08-30T11:49:28;1.77;;;0.65;;
31730;SDS011;18310;55.586;12.286;2023-08-30T11:52:31;1.70;;;0.60;;
31730;SDS011;18310;55.586;12.286;2023-08-30T11:55:36;1.23;;;0.57;;
31730;SDS011;18310;55.586;12.286;2023-08-30T11:58:41;1.73;;;0.60;;
31730;SDS011;18310;55.586;12.286;2023-08-30T12:01:45;3.03;;;0.82;;
31730;SDS011;18310;55.586;12.286;2023-08-30T12:04:48;2.33;;;0.70;;
31730;SDS011;18310;55.586;12.286;2023-08-30T12:07:52;3.85;;;0.77;;
31730;SDS011;18310;55.586;12.286;2023-08-30T12:10:56;1.08;;;0.50;;
31730;SDS011;18310;55.586;12.286;2023-08-30T12:14:02;0.85;;;0.40;;
31730;SDS011;18310;55.586;12.286;2023-08-30T12:17:06;1.50;;;0.50;;
31730;SDS011;18310;55.586;12.286;2023-08-30T12:20:14;1.65;;;0.75;;
31730;SDS011;18310;55.586;12.286;2023-08-30T12:23:19;1.52;;;0.63;;
31730;SDS011;18310;55.586;12.286;2023-08-30T12:26:30;3.15;;;0.52;;
31730;SDS011;18310;55.586;12.286;2023-08-30T12:29:36;1.30;;;0.60;;
31730;SDS011;18310;55.586;12.286;2023-08-30T12:32:39;1.23;;;0.40;;
31730;SDS011;18310;55.586;12.286;2023-08-30T12:35:42;1.15;;;0.50;;
31730;SDS011;18310;55.586;12.286;2023-08-30T12:38:45;1.55;;;0.57;;
31730;SDS011;18310;55.586;12.286;2023-08-30T12:41:48;1.80;;;0.50;;
31730;SDS011;18310;55.586;12.286;2023-08-30T12:44:53;1.20;;;0.40;;
31730;SDS011;18310;55.586;12.286;2023-08-30T12:47:56;1.25;;;0.50;;
31730;SDS011;18310;55.586;12.286;2023-08-30T12:51:00;1.70;;;0.70;;
31730;SDS011;18310;55.586;12.286;2023-08-30T12:54:05;1.80;;;0.60;;
31730;SDS011;18310;55.586;12.286;2023-08-30T12:57:08;3.05;;;0.80;;
31730;SDS011;18310;55.586;12.286;2023-08-30T13:00:13;1.90;;;0.60;;
31730;SDS011;18310;55.586;12.286;2023-08-30T13:03:16;3.05;;;0.70;;
31730;SDS011;18310;55.586;12.286;2023-08-30T13:06:21;1.75;;;0.60;;
31730;SDS011;18310;55.586;12.286;2023-08-30T13:09:24;2.13;;;0.80;;
31730;SDS011;18310;55.586;12.286;2023-08-30T13:12:27;1.02;;;0.43;;
31730;SDS011;18310;55.586;12.286;2023-08-30T13:15:32;4.17;;;0.93;;
31730;SDS011;18310;55.586;12.286;2023-08-30T13:18:35;0.43;;;0.30;;
31730;SDS011;18310;55.586;12.286;2023-08-30T13:21:38;3.08;;;0.70;;
31730;SDS011;18310;55.586;12.286;2023-08-30T13:24:42;1.88;;;0.40;;
31730;SDS011;18310;55.586;12.286;2023-08-30T13:27:45;1.47;;;0.50;;
31730;SDS011;18310;55.586;12.286;2023-08-30T13:30:50;0.80;;;0.40;;
31730;SDS011;18310;55.586;12.286;2023-08-30T13:33:53;3.15;;;0.60;;
31730;SDS011;18310;55.586;12.286;2023-08-30T13:36:56;3.67;;;0.82;;
31730;SDS011;18310;55.586;12.286;2023-08-30T13:39:59;1.48;;;0.40;;
31730;SDS011;18310;55.586;12.286;2023-08-30T13:43:02;1.95;;;0.47;;
31730;SDS011;18310;55.586;12.286;2023-08-30T13:46:07;1.98;;;0.70;;
31730;SDS011;18310;55.586;12.286;2023-08-30T13:49:10;0.88;;;0.45;;
31730;SDS011;18310;55.586;12.286;2023-08-30T13:52:13;2.38;;;0.60;;
31730;SDS011;18310;55.586;12.286;2023-08-30T13:55:17;1.63;;;0.60;;
31730;SDS011;18310;55.586;12.286;2023-08-30T13:58:20;4.85;;;0.55;;
31730;SDS011;18310;55.586;12.286;2023-08-30T14:04:28;2.70;;;0.63;;
31730;SDS011;18310;55.586;12.286;2023-08-30T14:07:33;1.67;;;0.65;;
31730;SDS011;18310;55.586;12.286;2023-08-30T14:10:36;1.13;;;0.45;;
31730;SDS011;18310;55.586;12.286;2023-08-30T14:13:39;2.92;;;0.75;;
31730;SDS011;18310;55.586;12.286;2023-08-30T14:16:44;2.43;;;0.87;;
31730;SDS011;18310;55.586;12.286;2023-08-30T14:19:47;2.25;;;0.77;;
31730;SDS011;18310;55.586;12.286;2023-08-30T14:22:50;1.38;;;0.60;;
31730;SDS011;18310;55.586;12.286;2023-08-30T14:25:57;2.25;;;0.70;;
31730;SDS011;18310;55.586;12.286;2023-08-30T14:29:00;2.10;;;0.70;;
31730;SDS011;18310;55.586;12.286;2023-08-30T14:32:04;2.30;;;0.55;;
31730;SDS011;18310;55.586;12.286;2023-08-30T14:35:08;1.23;;;0.57;;
31730;SDS011;18310;55.586;12.286;2023-08-30T14:38:12;2.08;;;0.85;;
31730;SDS011;18310;55.586;12.286;2023-08-30T14:41:16;5.53;;;1.13;;
31730;SDS011;18310;55.586;12.286;2023-08-30T14:44:19;1.10;;;0.60;;
31730;SDS011;18310;55.586;12.286;2023-08-30T14:47:38;1.57;;;0.70;;
31730;SDS011;18310;55.586;12.286;2023-08-30T14:51:25;1.90;;;0.80;;
31730;SDS011;18310;55.586;12.286;2023-08-30T14:54:46;3.83;;;0.70;;
31730;SDS011;18310;55.586;12.286;2023-08-30T14:58:04;1.30;;;0.63;;
31730;SDS011;18310;55.586;12.286;2023-08-30T15:01:16;1.65;;;0.70;;
31730;SDS011;18310;55.586;12.286;2023-08-30T15:04:21;3.40;;;0.80;;
31730;SDS011;18310;55.586;12.286;2023-08-30T15:07:45;2.13;;;0.70;;
31730;SDS011;18310;55.586;12.286;2023-08-30T15:10:48;2.90;;;0.68;;
31730;SDS011;18310;55.586;12.286;2023-08-30T15:13:53;2.42;;;0.70;;
31730;SDS011;18310;55.586;12.286;2023-08-30T15:16:56;2.28;;;0.65;;
31730;SDS011;18310;55.586;12.286;2023-08-30T15:19:59;1.27;;;0.70;;
31730;SDS011;18310;55.586;12.286;2023-08-30T15:23:03;1.83;;;0.80;;
31730;SDS011;18310;55.586;12.286;2023-08-30T15:28:00;1.40;;;0.63;;
31730;SDS011;18310;55.586;12.286;2023-08-30T15:31:05;1.77;;;0.60;;
31730;SDS011;18310;55.586;12.286;2023-08-30T15:34:08;3.00;;;1.10;;
31730;SDS011;18310;55.586;12.286;2023-08-30T15:37:11;3.45;;;1.05;;
31730;SDS011;18310;55.586;12.286;2023-08-30T15:40:15;3.42;;;0.82;;
31730;SDS011;18310;55.586;12.286;2023-08-30T15:43:19;1.70;;;0.55;;
31730;SDS011;18310;55.586;12.286;2023-08-30T15:46:24;2.63;;;0.98;;
31730;SDS011;18310;55.586;12.286;2023-08-30T15:49:27;3.13;;;0.90;;
31730;SDS011;18310;55.586;12.286;2023-08-30T15:52:30;2.13;;;0.98;;
31730;SDS011;18310;55.586;12.286;2023-08-30T15:55:34;2.47;;;0.90;;
31730;SDS011;18310;55.586;12.286;2023-08-30T15:58:38;2.38;;;0.90;;
31730;SDS011;18310;55.586;12.286;2023-08-30T16:01:41;3.33;;;0.90;;
31730;SDS011;18310;55.586;12.286;2023-08-30T16:04:44;1.97;;;0.80;;
31730;SDS011;18310;55.586;12.286;2023-08-30T16:07:48;3.70;;;0.87;;
31730;SDS011;18310;55.586;12.286;2023-08-30T16:10:51;3.35;;;1.00;;
31730;SDS011;18310;55.586;12.286;2023-08-30T16:13:57;1.75;;;0.80;;
31730;SDS011;18310;55.586;12.286;2023-08-30T16:17:00;3.08;;;0.88;;
31730;SDS011;18310;55.586;12.286;2023-08-30T16:20:03;2.25;;;0.75;;
31730;SDS011;18310;55.586;12.286;2023-08-30T16:23:07;2.03;;;1.02;;
31730;SDS011;18310;55.586;12.286;2023-08-30T16:26:10;2.72;;;0.90;;
31730;SDS011;18310;55.586;12.286;2023-08-30T16:29:16;2.42;;;0.88;;
31730;SDS011;18310;55.586;12.286;2023-08-30T16:32:19;1.83;;;0.70;;
31730;SDS011;18310;55.586;12.286;2023-08-30T16:36:00;2.80;;;0.70;;
31730;SDS011;18310;55.586;12.286;2023-08-30T16:39:04;2.20;;;0.88;;
31730;SDS011;18310;55.586;12.286;2023-08-30T16:42:08;1.65;;;0.93;;
31730;SDS011;18310;55.586;12.286;2023-08-30T16:45:11;1.67;;;0.73;;
31730;SDS011;18310;55.586;12.286;2023-08-30T16:48:14;1.60;;;0.77;;
31730;SDS011;18310;55.586;12.286;2023-08-30T16:51:18;1.63;;;0.70;;
31730;SDS011;18310;55.586;12.286;2023-08-30T16:54:21;2.47;;;0.77;;
31730;SDS011;18310;55.586;12.286;2023-08-30T16:57:24;2.75;;;0.88;;
31730;SDS011;18310;55.586;12.286;2023-08-30T17:00:31;3.25;;;0.90;;
31730;SDS011;18310;55.586;12.286;2023-08-30T17:03:34;2.05;;;0.80;;
31730;SDS011;18310;55.586;12.286;2023-08-30T17:06:39;3.43;;;0.93;;
31730;SDS011;18310;55.586;12.286;2023-08-30T17:09:42;2.40;;;0.93;;
31730;SDS011;18310;55.586;12.286;2023-08-30T17:12:45;7.03;;;1.05;;
31730;SDS011;18310;55.586;12.286;2023-08-30T17:15:48;3.60;;;0.90;;
31730;SDS011;18310;55.586;12.286;2023-08-30T17:18:51;2.25;;;1.00;;
31730;SDS011;18310;55.586;12.286;2023-08-30T17:21:56;3.10;;;1.03;;
31730;SDS011;18310;55.586;12.286;2023-08-30T17:25:20;2.97;;;0.90;;
31730;SDS011;18310;55.586;12.286;2023-08-30T17:28:23;3.22;;;0.77;;
31730;SDS011;18310;55.586;12.286;2023-08-30T17:31:26;2.30;;;0.97;;
31730;SDS011;18310;55.586;12.286;2023-08-30T17:34:29;1.95;;;0.73;;
31730;SDS011;18310;55.586;12.286;2023-08-30T17:37:32;1.85;;;0.90;;
31730;SDS011;18310;55.586;12.286;2023-08-30T17:40:37;2.80;;;0.83;;
31730;SDS011;18310;55.586;12.286;2023-08-30T17:43:40;2.47;;;0.80;;
31730;SDS011;18310;55.586;12.286;2023-08-30T17:46:43;1.60;;;0.63;;
31730;SDS011;18310;55.586;12.286;2023-08-30T17:49:46;3.83;;;0.80;;
31730;SDS011;18310;55.586;12.286;2023-08-30T17:52:49;2.47;;;0.80;;
31730;SDS011;18310;55.586;12.286;2023-08-30T17:56:31;3.33;;;1.00;;
31730;SDS011;18310;55.586;12.286;2023-08-30T17:59:34;2.80;;;0.90;;
31730;SDS011;18310;55.586;12.286;2023-08-30T18:02:37;1.48;;;0.77;;
31730;SDS011;18310;55.586;12.286;2023-08-30T18:05:41;2.50;;;0.93;;
31730;SDS011;18310;55.586;12.286;2023-08-30T18:08:44;1.48;;;0.77;;
31730;SDS011;18310;55.586;12.286;2023-08-30T18:11:48;2.40;;;1.00;;
31730;SDS011;18310;55.586;12.286;2023-08-30T18:14:52;2.50;;;1.02;;
31730;SDS011;18310;55.586;12.286;2023-08-30T18:17:55;5.65;;;1.23;;
31730;SDS011;18310;55.586;12.286;2023-08-30T18:20:58;1.92;;;0.80;;
31730;SDS011;18310;55.586;12.286;2023-08-30T18:24:11;3.57;;;1.13;;
31730;SDS011;18310;55.586;12.286;2023-08-30T18:27:17;1.83;;;0.77;;
31730;SDS011;18310;55.586;12.286;2023-08-30T18:30:21;3.58;;;0.80;;
31730;SDS011;18310;55.586;12.286;2023-08-30T18:33:24;2.00;;;0.90;;
31730;SDS011;18310;55.586;12.286;2023-08-30T18:36:27;2.88;;;1.00;;
31730;SDS011;18310;55.586;12.286;2023-08-30T18:39:30;3.80;;;1.47;;
31730;SDS011;18310;55.586;12.286;2023-08-30T18:42:35;3.53;;;1.75;;
31730;SDS011;18310;55.586;12.286;2023-08-30T18:45:43;3.80;;;1.27;;
31730;SDS011;18310;55.586;12.286;2023-08-30T18:48:47;3.78;;;1.48;;